Time;durP1;ratioP1;P1;durP2;ratioP2;P2;SDS_P1;SDS_P2;PMS_P1;PMS_P2;Temp;Humidity;BMP_temperature;BMP_pressure;BME280_temperature;BME280_humidity;BME280_pressure;Samples;Min_cycle;Max_cycle;Signal;HPM_P1;HPM_P2
2023/09/27 00:01:17;;;;;;;13.25;8.10;;;;;;;;;;5076691;28;20036;-71
2023/09/27 00:03:43;;;;;;;13.05;8.20;;;487.20;2380.80;;;;;;5076946;28;20017;-73
2023/09/27 00:06:09;;;;;;;16.75;8.45;;;487.10;2380.80;;;;;;5076736;28;20074;-72
2023/09/27 00:08:35;;;;;;;20.17;8.75;;;487.00;2380.80;;;;;;5076712;28;20154;-75
2023/09/27 00:11:02;;;;;;;13.48;8.48;;;;;;;;;;5076517;28;20032;-74
2023/09/27 00:13:29;;;;;;;13.90;8.20;;;;;;;;;;5076787;28;20024;-73
2023/09/27 00:15:55;;;;;;;15.07;7.70;;;;;;;;;;5076409;28;20029;-73
2023/09/27 00:18:21;;;;;;;15.00;8.50;;;;;;;;;;5076315;28;20048;-72
2023/09/27 00:20:47;;;;;;;15.45;8.50;;;;;;;;;;5076007;28;20025;-73
2023/09/27 00:23:13;;;;;;;21.73;9.60;;;;;;;;;;5076286;28;20024;-73
2023/09/27 00:25:39;;;;;;;18.13;8.60;;;;;;;;;;5075975;28;20024;-73
2023/09/27 00:28:05;;;;;;;17.13;7.75;;;;;;;;;;5076193;28;20023;-73
2023/09/27 00:30:31;;;;;;;10.77;7.63;;;;;;;;;;5076006;28;20025;-73
2023/09/27 00:32:59;;;;;;;16.30;8.20;;;;;;;;;;5075915;28;20095;-73
2023/09/27 00:35:25;;;;;;;17.13;8.20;;;;;;;;;;5075778;28;20032;-72
2023/09/27 00:37:51;;;;;;;12.90;7.38;;;;;;;;;;5076086;28;20024;-73
2023/09/27 00:40:22;;;;;;;13.95;7.47;;;;;;;;;;5075504;28;20052;-73
2023/09/27 00:42:48;;;;;;;12.52;7.32;;;;;;;;;;5076107;28;20025;-73
2023/09/27 00:45:14;;;;;;;12.50;7.65;;;;;;;;;;5075690;28;20473;-74
2023/09/27 00:47:41;;;;;;;10.27;7.55;;;;;;;;;;5075791;28;20032;-73
2023/09/27 00:50:09;;;;;;;18.50;7.95;;;;;;;;;;5075813;28;20051;-73
2023/09/27 00:52:35;;;;;;;15.32;8.60;;;;;;;;;;5075653;28;20021;-75
2023/09/27 00:55:01;;;;;;;14.10;7.60;;;;;;;;;;5075464;28;20388;-73
2023/09/27 00:57:28;;;;;;;12.25;7.20;;;;;;;;;;5075500;28;20031;-73
2023/09/27 00:59:54;;;;;;;10.73;7.75;;;;;;;;;;5075500;28;20025;-73
2023/09/27 01:02:20;;;;;;;15.73;7.32;;;;;;;;;;5075503;28;20020;-73
2023/09/27 01:04:46;;;;;;;14.45;8.60;;;;;;;;;;5075412;28;20021;-73
2023/09/27 01:07:12;;;;;;;15.80;7.90;;;;;;;;;;5075722;28;20108;-73
2023/09/27 01:09:38;;;;;;;16.50;7.45;;;;;;;;;;5074336;28;20509;-73
2023/09/27 01:12:05;;;;;;;12.88;7.65;;;;;;;;;;5073984;28;20036;-74
2023/09/27 01:14:31;;;;;;;14.63;8.18;;;;;;;;;;5075031;28;20028;-74
2023/09/27 01:17:08;;;;;;;12.25;7.53;;;;;;;;;;5075221;28;20081;-74
2023/09/27 01:19:34;;;;;;;9.18;7.15;;;;;;;;;;5073954;28;20107;-74
2023/09/27 01:22:00;;;;;;;18.63;7.55;;;;;;;;;;5075134;28;20028;-74
2023/09/27 01:24:26;;;;;;;10.77;7.22;;;;;;;;;;5075096;28;20116;-73
2023/09/27 01:26:54;;;;;;;13.57;6.57;;;;;;;;;;5074790;28;20076;-74
2023/09/27 01:29:20;;;;;;;15.73;8.15;;;;;;;;;;5075113;28;20492;-73
2023/09/27 01:31:46;;;;;;;20.35;7.00;;;;;;;;;;5074681;28;20500;-74
2023/09/27 01:34:12;;;;;;;10.48;7.28;;;;;;;;;;5067829;28;20023;-74
2023/09/27 01:36:38;;;;;;;15.07;7.70;;;;;;;;;;5074614;28;20473;-73
2023/09/27 01:39:06;;;;;;;14.85;7.18;;;;;;;;;;5074712;28;20484;-73
2023/09/27 01:41:32;;;;;;;14.00;6.55;;;;;;;;;;5074645;28;20078;-74
2023/09/27 01:43:59;;;;;;;14.65;6.68;;;;;;;;;;5074784;28;20013;-73
2023/09/27 01:46:25;;;;;;;9.82;6.10;;;;;;;;;;5074549;28;20031;-74
2023/09/27 01:48:51;;;;;;;12.55;6.57;;;;;;;;;;5074631;28;20113;-74
2023/09/27 01:51:17;;;;;;;16.20;7.13;;;;;;;;;;5074576;28;20032;-73
2023/09/27 01:53:43;;;;;;;14.70;6.30;;;;;;;;;;5074674;28;20100;-74
2023/09/27 01:56:09;;;;;;;16.55;6.75;;;;;;;;;;5074328;28;20048;-74
2023/09/27 01:58:35;;;;;;;11.82;6.60;;;;;;;;;;5074459;28;20024;-74
2023/09/27 02:01:01;;;;;;;11.55;7.47;;;;;;;;;;5074207;28;20025;-74
2023/09/27 02:03:27;;;;;;;11.68;6.32;;;;;;;;;;5074555;28;20056;-74
2023/09/27 02:05:53;;;;;;;16.42;6.50;;;;;;;;;;5074178;28;20024;-74
2023/09/27 02:08:19;;;;;;;14.27;7.10;;;;;;;;;;5074160;28;20020;-75
2023/09/27 02:10:45;;;;;;;16.75;6.20;;;;;;;;;;5073940;28;20024;-74
2023/09/27 02:13:12;;;;;;;12.30;7.40;;;;;;;;;;5074112;28;20019;-74
2023/09/27 02:15:38;;;;;;;14.90;7.38;;;;;;;;;;5073971;28;20029;-74
2023/09/27 02:18:04;;;;;;;17.83;7.43;;;;;;;;;;5074220;28;20020;-75
2023/09/27 02:20:30;;;;;;;12.93;6.93;;;;;;;;;;5073673;28;20099;-74
2023/09/27 02:22:56;;;;;;;13.02;6.90;;;;;;;;;;5073365;28;20020;-75
2023/09/27 02:25:22;;;;;;;13.15;6.10;;;;;;;;;;5074583;28;20534;-75
2023/09/27 02:27:48;;;;;;;15.43;6.57;;;;;;;;;;5074932;28;20052;-74
2023/09/27 02:30:15;;;;;;;9.82;5.75;;;;;;;;;;5074648;28;20028;-74
2023/09/27 02:32:41;;;;;;;9.38;6.03;;;;;;;;;;5072587;28;20024;-73
2023/09/27 02:35:11;;;;;;;11.88;7.15;;;;;;;;;;5073523;28;20090;-74
2023/09/27 02:37:40;;;;;;;12.02;6.15;;;;;;;;;;5073733;28;20028;-73
2023/09/27 02:40:11;;;;;;;14.52;6.43;;;;;;;;;;5073364;28;20048;-74
2023/09/27 02:42:44;;;;;;;11.57;6.30;;;;;;;;;;5073541;28;20027;-74
2023/09/27 02:45:10;;;;;;;12.05;5.25;;;;;;;;;;5072680;28;20037;-73
2023/09/27 02:47:37;;;;;;;17.60;7.15;;;;;;;;;;5073665;28;20546;-76
2023/09/27 02:50:05;;;;;;;16.27;6.90;;;;;;;;;;5073392;28;20020;-73
2023/09/27 02:52:32;;;;;;;10.98;6.53;;;;;;;;;;5073564;28;20055;-73
2023/09/27 02:54:58;;;;;;;13.13;6.32;;;;;;;;;;5073220;28;20028;-73
2023/09/27 02:57:24;;;;;;;14.88;7.32;;;;;;;;;;5073233;28;20070;-76
2023/09/27 02:59:50;;;;;;;16.17;6.45;;;;;;;;;;5073190;28;20095;-75
2023/09/27 03:02:16;;;;;;;16.70;6.28;;;;;;;;;;5073221;28;20048;-74
2023/09/27 03:04:42;;;;;;;15.05;7.18;;;;;;;;;;5072932;28;20027;-74
2023/09/27 03:07:08;;;;;;;17.83;7.22;;;;;;;;;;5073180;28;20025;-74
2023/09/27 03:09:36;;;;;;;13.23;7.50;;;;;;;;;;5072912;28;20024;-73
2023/09/27 03:12:03;;;;;;;12.55;7.78;;;461.70;2380.80;;;;;;5073110;28;20024;-73
2023/09/27 03:14:29;;;;;;;18.00;8.50;;;461.60;2380.80;;;;;;5072828;28;20021;-74
2023/09/27 03:16:54;;;;;;;18.50;9.02;;;461.60;2380.80;;;;;;5073061;28;20027;-74
2023/09/27 03:19:23;;;;;;;14.18;7.53;;;461.50;2380.80;;;;;;5072897;28;20526;-76
2023/09/27 03:21:49;;;;;;;15.63;7.45;;;461.50;2380.80;;;;;;5073146;28;20032;-74
2023/09/27 03:24:15;;;;;;;20.33;8.05;;;;;;;;;;5072930;28;20017;-74
2023/09/27 03:26:41;;;;;;;14.88;8.40;;;461.50;2380.80;;;;;;5072829;28;20028;-75
2023/09/27 03:29:06;;;;;;;15.10;8.77;;;461.40;2380.80;;;;;;5072956;28;20369;-74
2023/09/27 03:31:32;;;;;;;19.55;8.65;;;461.40;2380.80;;;;;;5072914;28;20024;-74
2023/09/27 03:34:00;;;;;;;16.65;8.15;;;461.30;2380.80;;;;;;5072552;28;20563;-75
2023/09/27 03:36:26;;;;;;;17.33;8.80;;;461.30;2380.80;;;;;;5073126;28;20116;-75
2023/09/27 03:38:52;;;;;;;11.57;7.85;;;461.40;2380.80;;;;;;5071502;28;20463;-75
2023/09/27 03:41:18;;;;;;;15.45;9.25;;;461.40;2380.80;;;;;;5072879;28;20041;-75
2023/09/27 03:43:44;;;;;;;15.30;8.20;;;461.20;2380.80;;;;;;5072620;28;20012;-75
2023/09/27 03:46:11;;;;;;;17.35;8.65;;;461.30;2380.80;;;;;;5072804;28;20024;-74
2023/09/27 03:48:37;;;;;;;13.45;7.32;;;461.20;2380.80;;;;;;5072719;28;20012;-74
2023/09/27 03:51:03;;;;;;;18.30;8.75;;;461.30;2380.80;;;;;;5071557;28;20032;-74
2023/09/27 03:53:29;;;;;;;17.10;8.68;;;;;;;;;;5072656;28;20021;-74
2023/09/27 03:55:55;;;;;;;16.75;8.48;;;461.20;2380.80;;;;;;5072708;28;20033;-75
2023/09/27 03:58:21;;;;;;;18.63;8.07;;;461.00;2380.80;;;;;;5072315;28;20020;-74
2023/09/27 04:00:47;;;;;;;15.65;9.10;;;461.10;2380.80;;;;;;5072664;28;20035;-75
2023/09/27 04:03:12;;;;;;;12.70;8.68;;;461.10;2380.80;;;;;;5072571;28;20020;-75
2023/09/27 04:05:38;;;;;;;15.00;8.63;;;461.10;2380.80;;;;;;5072644;28;20033;-75
2023/09/27 04:08:04;;;;;;;17.40;8.02;;;461.00;2380.80;;;;;;5072559;28;20020;-74
2023/09/27 04:10:31;;;;;;;11.82;7.88;;;460.90;2380.80;;;;;;5072679;28;20028;-75
2023/09/27 04:12:57;;;;;;;14.85;8.48;;;460.80;2380.80;;;;;;5072447;28;20024;-75
2023/09/27 04:15:23;;;;;;;17.85;8.48;;;460.90;2380.80;;;;;;5072080;28;20070;-74
2023/09/27 04:17:49;;;;;;;15.40;8.52;;;460.90;2380.80;;;;;;5072275;28;20103;-75
2023/09/27 04:20:18;;;;;;;11.90;8.00;;;460.90;2380.80;;;;;;5072549;28;20107;-74
2023/09/27 04:22:47;;;;;;;14.60;8.82;;;461.00;2380.80;;;;;;5072308;28;20028;-75
2023/09/27 04:25:14;;;;;;;16.33;8.43;;;460.90;2380.80;;;;;;5072210;28;20051;-74
2023/09/27 04:27:45;;;;;;;14.68;8.85;;;460.90;2380.80;;;;;;5072359;28;20031;-74
2023/09/27 04:30:13;;;;;;;17.20;8.80;;;460.90;2380.80;;;;;;5072160;28;20021;-75
2023/09/27 04:32:43;;;;;;;19.45;8.98;;;460.90;2380.80;;;;;;5072388;28;20025;-75
2023/09/27 04:35:09;;;;;;;15.30;9.35;;;460.90;2380.80;;;;;;5071970;28;20037;-74
2023/09/27 04:37:39;;;;;;;15.73;8.85;;;461.00;2380.80;;;;;;5072375;28;20025;-74
2023/09/27 04:40:11;;;;;;;27.10;9.48;;;461.00;2380.80;;;;;;5066777;28;20041;-74
2023/09/27 04:42:39;;;;;;;15.75;8.07;;;460.90;2380.80;;;;;;5072872;28;20035;-74
2023/09/27 04:45:06;;;;;;;16.15;8.55;;;461.10;2380.80;;;;;;5071688;28;20049;-75
2023/09/27 04:47:32;;;;;;;15.68;9.35;;;461.10;2380.80;;;;;;5082368;28;20020;-74
2023/09/27 04:49:58;;;;;;;19.25;9.23;;;461.00;2380.80;;;;;;5077557;28;20039;-74
2023/09/27 04:52:24;;;;;;;20.88;9.18;;;461.00;2380.80;;;;;;5073738;28;20494;-75
2023/09/27 04:54:57;;;;;;;20.38;8.02;;;461.10;2380.80;;;;;;5080921;28;20043;-74
2023/09/27 04:57:24;;;;;;;12.23;7.57;;;461.10;2380.80;;;;;;5092721;28;20073;-74
2023/09/27 04:59:52;;;;;;;15.73;9.15;;;461.10;2380.80;;;;;;5070986;28;20025;-75
2023/09/27 05:02:21;;;;;;;17.25;9.10;;;461.10;2380.80;;;;;;5071737;28;20108;-74
2023/09/27 05:04:47;;;;;;;12.40;7.93;;;461.20;2380.80;;;;;;5089397;28;20023;-74
2023/09/27 05:07:18;;;;;;;17.67;9.63;;;461.20;2380.80;;;;;;5077008;28;20502;-75
2023/09/27 05:09:44;;;;;;;14.18;8.95;;;461.20;2380.80;;;;;;5073432;28;20023;-74
2023/09/27 05:12:10;;;;;;;18.65;9.48;;;461.20;2380.80;;;;;;5072678;28;20028;-74
2023/09/27 05:14:35;;;;;;;20.00;11.32;;;461.30;2380.80;;;;;;5070677;28;20029;-73
2023/09/27 05:17:01;;;;;;;24.95;14.13;;;461.20;2380.80;;;;;;5066130;28;20468;-75
2023/09/27 05:19:27;;;;;;;21.10;11.63;;;461.20;2380.80;;;;;;5065314;28;20029;-74
2023/09/27 05:21:53;;;;;;;18.35;11.00;;;461.20;2380.80;;;;;;5068829;28;20021;-75
2023/09/27 05:24:19;;;;;;;13.40;8.73;;;461.20;2380.80;;;;;;5064303;28;20043;-74
2023/09/27 05:26:44;;;;;;;17.50;9.18;;;461.30;2380.80;;;;;;5073673;28;20560;-76
2023/09/27 05:29:13;;;;;;;16.35;9.07;;;461.40;2380.80;;;;;;5075612;28;20017;-75
2023/09/27 05:31:45;;;;;;;13.68;8.90;;;461.40;2380.80;;;;;;5082530;28;20028;-74
2023/09/27 05:34:11;;;;;;;15.30;8.38;;;461.40;2380.80;;;;;;5066400;28;20025;-73
2023/09/27 05:36:37;;;;;;;18.33;9.18;;;461.60;2380.80;;;;;;5071811;28;20039;-72
2023/09/27 05:39:05;;;;;;;14.38;9.07;;;461.70;2380.80;;;;;;5071631;28;20463;-75
2023/09/27 05:41:31;;;;;;;17.00;9.43;;;461.70;2380.80;;;;;;5067963;28;20025;-75
2023/09/27 05:43:57;;;;;;;15.77;8.55;;;461.60;2380.80;;;;;;5073743;28;20040;-75
2023/09/27 05:46:23;;;;;;;12.82;9.13;;;461.60;2380.80;;;;;;5077731;28;20020;-74
2023/09/27 05:48:49;;;;;;;15.93;8.23;;;461.70;2380.80;;;;;;5070361;28;20108;-74
2023/09/27 05:51:15;;;;;;;12.00;8.05;;;461.60;2380.80;;;;;;5080667;28;20492;-75
2023/09/27 05:53:41;;;;;;;13.63;8.82;;;461.70;2380.80;;;;;;5077972;28;20030;-74
2023/09/27 05:56:07;;;;;;;16.95;8.25;;;486.40;2380.80;;;;;;5066243;28;20115;-75
2023/09/27 05:58:37;;;;;;;10.18;8.07;;;486.40;2380.80;;;;;;5076333;28;20024;-74
2023/09/27 06:01:04;;;;;;;15.48;9.10;;;486.40;2380.80;;;;;;5076667;28;20022;-76
2023/09/27 06:03:31;;;;;;;18.13;9.52;;;486.50;2380.80;;;;;;5066746;28;20087;-75
2023/09/27 06:05:58;;;;;;;13.43;8.30;;;486.50;2380.80;;;;;;5076739;28;20056;-73
2023/09/27 06:08:24;;;;;;;15.63;8.23;;;;;;;;;;5068516;28;20036;-76
2023/09/27 06:10:50;;;;;;;13.40;7.93;;;461.70;2380.80;;;;;;5080886;28;20033;-74
2023/09/27 06:13:15;;;;;;;16.05;7.70;;;486.80;2380.80;;;;;;5072541;28;20017;-74
2023/09/27 06:15:42;;;;;;;15.93;8.90;;;487.00;2380.80;;;;;;5066274;28;20036;-74
2023/09/27 06:18:07;;;;;;;16.67;7.28;;;487.00;2380.80;;;;;;5066754;28;20013;-74
2023/09/27 06:20:33;;;;;;;18.42;7.53;;;487.20;2380.80;;;;;;5070545;28;20516;-73
2023/09/27 06:23:03;;;;;;;15.43;7.57;;;487.20;2380.80;;;;;;5065196;28;20032;-74
2023/09/27 06:25:30;;;;;;;14.90;7.65;;;487.30;2380.80;;;;;;5074761;28;20024;-74
2023/09/27 06:27:57;;;;;;;10.50;7.15;;;;;;;;;;5078731;28;20022;-73
2023/09/27 06:30:23;;;;;;;11.77;7.95;;;512.80;2380.80;;;;;;5070634;28;20028;-72
2023/09/27 06:32:49;;;;;;;10.15;7.22;;;;;;;;;;5068214;28;20022;-73
2023/09/27 06:35:16;;;;;;;13.77;7.95;;;;;;;;;;5063516;28;20048;-73
2023/09/27 06:37:44;;;;;;;15.07;7.85;;;;;;;;;;5078937;28;20020;-73
2023/09/27 06:40:16;;;;;;;11.88;6.93;;;538.40;2406.40;;;;;;5067703;28;20472;-73
2023/09/27 06:42:42;;;;;;;18.65;7.22;;;;;;;;;;5069580;28;20033;-71
2023/09/27 06:45:10;;;;;;;13.20;6.82;;;;;;;;;;5072018;28;20103;-74
2023/09/27 06:47:38;;;;;;;9.60;7.15;;;;;;;;;;5070310;28;20021;-75
2023/09/27 06:50:04;;;;;;;10.77;7.15;;;563.90;2432.00;;;;;;5070890;28;20035;-74
2023/09/27 06:52:30;;;;;;;17.50;6.97;;;563.90;2432.00;;;;;;5066151;28;20024;-75
2023/09/27 06:54:57;;;;;;;13.52;7.15;;;564.00;2432.00;;;;;;5076660;28;20028;-72
2023/09/27 06:57:23;;;;;;;14.07;6.70;;;588.80;2432.00;;;;;;5073915;28;20111;-72
2023/09/27 06:59:49;;;;;;;9.57;6.10;;;589.00;2432.00;;;;;;5073774;28;20103;-73
2023/09/27 07:02:16;;;;;;;8.68;5.78;;;589.20;2432.00;;;;;;5072289;28;20028;-73
2023/09/27 07:04:42;;;;;;;17.05;6.28;;;589.30;2432.00;;;;;;5087345;28;20027;-73
2023/09/27 07:07:12;;;;;;;12.50;6.15;;;589.60;2432.00;;;;;;5073483;28;20464;-73
2023/09/27 07:09:37;;;;;;;11.27;5.80;;;589.70;2432.00;;;;;;5067026;28;20025;-74
2023/09/27 07:12:04;;;;;;;22.83;6.22;;;614.50;2432.00;;;;;;5063307;28;20033;-74
2023/09/27 07:14:29;;;;;;;10.32;5.63;;;614.80;2432.00;;;;;;5063410;28;20115;-75
2023/09/27 07:16:55;;;;;;;9.55;5.10;;;615.10;2432.00;;;;;;5063037;28;20116;-74
2023/09/27 07:19:21;;;;;;;16.33;5.63;;;615.10;2432.00;;;;;;5066544;28;20099;-77
2023/09/27 07:21:47;;;;;;;12.30;6.03;;;615.20;2432.00;;;;;;5062124;28;20017;-74
2023/09/27 07:24:13;;;;;;;12.43;5.18;;;640.00;2432.00;;;;;;5062779;28;20079;-73
2023/09/27 07:26:41;;;;;;;13.02;6.00;;;640.10;2432.00;;;;;;5067645;28;20028;-73
2023/09/27 07:29:08;;;;;;;12.10;6.10;;;;;;;;;;5065249;28;20606;-75
2023/09/27 07:31:35;;;;;;;12.30;5.80;;;640.20;2432.00;;;;;;5087683;28;20024;-75
2023/09/27 07:34:01;;;;;;;10.50;5.03;;;640.60;2329.60;;;;;;5074645;28;20016;-74
2023/09/27 07:36:27;;;;;;;8.38;6.28;;;640.70;2304.00;;;;;;5076050;28;20032;-73
2023/09/27 07:38:57;;;;;;;9.57;5.07;;;640.70;2201.60;;;;;;5078525;28;20040;-72
2023/09/27 07:41:24;;;;;;;13.05;5.65;;;665.60;2176.00;;;;;;5064469;28;20047;-73
2023/09/27 07:43:50;;;;;;;11.50;5.07;;;665.90;2201.60;;;;;;5069473;28;20535;-73
2023/09/27 07:46:18;;;;;;;11.32;5.57;;;666.10;2176.00;;;;;;5062541;28;20021;-72
2023/09/27 07:48:44;;;;;;;9.73;5.22;;;666.20;2099.20;;;;;;5063142;28;20021;-73
2023/09/27 07:51:14;;;;;;;8.88;5.15;;;666.50;2150.40;;;;;;5064299;28;20031;-73
2023/09/27 07:53:40;;;;;;;14.57;4.93;;;691.30;2048.00;;;;;;5075037;28;20021;-74
2023/09/27 07:56:10;;;;;;;9.05;5.50;;;691.40;1996.80;;;;;;5067932;28;20035;-73
2023/09/27 07:58:41;;;;;;;11.63;5.47;;;691.30;1996.80;;;;;;5075017;28;20240;-72
2023/09/27 08:01:07;;;;;;;9.90;4.60;;;691.70;1920.00;;;;;;5069546;28;20021;-71
2023/09/27 08:03:33;;;;;;;9.82;4.53;;;691.60;1920.00;;;;;;5069207;28;20031;-74
2023/09/27 08:05:59;;;;;;;14.20;5.57;;;691.70;1817.60;;;;;;5070014;28;20020;-73
2023/09/27 08:08:25;;;;;;;15.65;6.30;;;;;;;;;;5073354;28;20042;-73
2023/09/27 08:10:52;;;;;;;13.15;5.22;;;716.80;1868.80;;;;;;5076508;28;20354;-73
2023/09/27 08:13:18;;;;;;;14.43;5.05;;;716.90;1843.20;;;;;;5074401;28;20469;-73
2023/09/27 08:15:50;;;;;;;8.15;4.82;;;716.90;1843.20;;;;;;5071264;28;20040;-73
2023/09/27 08:18:16;;;;;;;7.65;4.47;;;717.20;1843.20;;;;;;5059426;28;20031;-73
2023/09/27 08:20:42;;;;;;;14.77;4.68;;;717.10;1817.60;;;;;;5067261;28;20465;-73
2023/09/27 08:23:08;;;;;;;13.60;5.47;;;717.30;1817.60;;;;;;5070601;28;20119;-72
2023/09/27 08:25:34;;;;;;;18.00;5.35;;;717.40;1715.20;;;;;;5086425;28;20533;-72
2023/09/27 08:28:01;;;;;;;11.35;5.40;;;717.20;1740.80;;;;;;5069569;28;20032;-73
2023/09/27 08:30:27;;;;;;;8.88;4.80;;;;;;;;;;5066906;28;20429;-72
2023/09/27 08:32:53;;;;;;;8.85;5.55;;;742.40;1817.60;;;;;;5072461;28;20024;-73
2023/09/27 08:35:19;;;;;;;16.05;5.78;;;742.40;1740.80;;;;;;5069849;28;20033;-72
2023/09/27 08:37:45;;;;;;;15.52;4.78;;;742.60;1740.80;;;;;;5065834;28;20013;-72
2023/09/27 08:40:15;;;;;;;19.73;5.40;;;742.80;1766.40;;;;;;5068674;28;20405;-72
2023/09/27 08:42:41;;;;;;;14.55;5.32;;;;;;;;;;5069439;28;20036;-72
2023/09/27 08:45:14;;;;;;;12.18;5.20;;;742.80;1689.60;;;;;;5069389;28;20063;-74
2023/09/27 08:47:42;;;;;;;8.88;4.53;;;743.00;1664.00;;;;;;5071055;28;20029;-73
2023/09/27 08:50:12;;;;;;;17.92;4.88;;;743.00;1638.40;;;;;;5075084;28;20478;-73
2023/09/27 08:52:38;;;;;;;34.03;18.77;;;743.00;1484.80;;;;;;5079778;28;20024;-76
2023/09/27 08:55:06;;;;;;;9.75;5.40;;;743.30;1484.80;;;;;;5064643;28;20174;-75
2023/09/27 08:57:36;;;;;;;11.10;5.63;;;768.20;1459.20;;;;;;5070798;28;20029;-74
2023/09/27 09:00:13;;;;;;;8.02;4.68;;;768.10;1408.00;;;;;;5077121;28;20431;-74
2023/09/27 09:02:43;;;;;;;10.52;4.82;;;768.40;1382.40;;;;;;5074833;28;20030;-73
2023/09/27 09:05:12;;;;;;;20.27;5.68;;;768.40;1331.20;;;;;;5087081;28;20042;-74
2023/09/27 09:07:42;;;;;;;11.23;5.22;;;768.50;1331.20;;;;;;5086933;28;20013;-74
2023/09/27 09:10:13;;;;;;;11.32;5.05;;;768.50;1382.40;;;;;;5077491;28;20040;-73
2023/09/27 09:12:41;;;;;;;11.20;4.95;;;768.10;1382.40;;;;;;5074711;28;20036;-73
2023/09/27 09:15:14;;;;;;;7.93;4.38;;;768.40;1382.40;;;;;;5073129;28;20036;-74
2023/09/27 09:17:47;;;;;;;9.85;4.05;;;768.60;1356.80;;;;;;5071211;28;20577;-73
2023/09/27 09:20:20;;;;;;;10.40;4.80;;;768.40;1382.40;;;;;;5073749;28;20037;-73
2023/09/27 09:22:46;;;;;;;8.65;4.90;;;768.70;1433.60;;;;;;5068382;28;20021;-74
2023/09/27 09:25:12;;;;;;;14.15;5.05;;;768.60;1356.80;;;;;;5081085;28;20074;-74
2023/09/27 09:27:38;;;;;;;9.38;4.90;;;793.70;1356.80;;;;;;5071237;28;20020;-74
2023/09/27 09:30:11;;;;;;;7.32;4.85;;;794.00;1356.80;;;;;;5072514;28;20043;-75
2023/09/27 09:32:48;;;;;;;13.30;5.30;;;793.70;1356.80;;;;;;5077879;28;20028;-73
2023/09/27 09:35:33;;;;;;;12.43;5.50;;;794.00;1331.20;;;;;;5066834;28;20378;-74
2023/09/27 09:38:01;;;;;;;14.55;5.93;;;793.80;1280.00;;;;;;5075520;28;20028;-73
2023/09/27 09:40:28;;;;;;;12.52;5.65;;;794.00;1331.20;;;;;;5069903;28;20477;-74
2023/09/27 09:42:53;;;;;;;8.63;5.13;;;794.00;1356.80;;;;;;5066796;28;20171;-74
2023/09/27 09:45:20;;;;;;;12.98;4.72;;;794.30;1356.80;;;;;;5065179;28;20521;-74
2023/09/27 09:47:46;;;;;;;9.73;4.78;;;794.20;1305.60;;;;;;5069479;28;20082;-73
2023/09/27 09:50:16;;;;;;;9.70;4.97;;;794.20;1331.20;;;;;;5078499;28;20514;-74
2023/09/27 09:53:04;;;;;;;10.70;5.45;;;794.30;1356.80;;;;;;5069529;28;20060;-74
2023/09/27 09:55:30;;;;;;;13.13;5.75;;;794.30;1280.00;;;;;;5065327;28;20089;-74
2023/09/27 09:58:13;;;;;;;9.20;5.75;;;794.20;1254.40;;;;;;5069525;28;20424;-74
2023/09/27 10:00:48;;;;;;;15.60;6.78;;;794.00;1280.00;;;;;;5064467;28;20048;-74
2023/09/27 10:03:21;;;;;;;10.45;5.80;;;793.90;1305.60;;;;;;5063517;28;20020;-75
2023/09/27 10:05:50;;;;;;;10.32;5.65;;;794.50;1305.60;;;;;;5064747;28;20520;-74
2023/09/27 10:08:17;;;;;;;17.33;6.00;;;819.30;1331.20;;;;;;5055942;28;20048;-74
2023/09/27 10:10:43;;;;;;;10.00;5.53;;;819.50;1280.00;;;;;;5057951;28;20389;-74
2023/09/27 10:13:10;;;;;;;15.32;5.03;;;;;;;;;;5068084;28;20032;-74
2023/09/27 10:15:37;;;;;;;12.25;5.88;;;;;;;;;;5069560;28;20032;-75
2023/09/27 10:18:21;;;;;;;7.40;4.40;;;;;;;;;;5072930;28;20037;-76
2023/09/27 10:21:12;;;;;;;15.93;5.35;;;819.80;1280.00;;;;;;5075309;28;20024;-76
2023/09/27 10:23:47;;;;;;;13.48;5.85;;;819.50;1254.40;;;;;;5067830;28;20032;-75
2023/09/27 10:26:37;;;;;;;10.75;5.68;;;819.80;1177.60;;;;;;5069134;28;20016;-76
2023/09/27 10:31:30;;;;;;;9.82;6.30;;;844.90;1254.40;;;;;;5066488;28;20040;-75
2023/09/27 10:33:56;;;;;;;16.60;5.63;;;;;;;;;;5069456;28;20021;-77
2023/09/27 10:36:22;;;;;;;13.02;5.47;;;;;;;;;;5074735;28;20033;-74
2023/09/27 10:38:51;;;;;;;15.48;5.50;;;;;;;;;;5073996;28;20089;-75
2023/09/27 10:41:38;;;;;;;13.20;5.80;;;;;;;;;;5073231;28;20036;-75
2023/09/27 10:44:04;;;;;;;9.52;5.55;;;;;;;;;;5061174;28;20032;-74
2023/09/27 10:46:41;;;;;;;12.98;5.68;;;;;;;;;;5069792;28;20044;-74
2023/09/27 10:49:07;;;;;;;12.80;5.88;;;;;;;;;;5065150;28;20036;-74
2023/09/27 10:51:33;;;;;;;12.75;5.07;;;820.10;1152.00;;;;;;5057163;28;20048;-75
2023/09/27 10:53:59;;;;;;;10.82;5.35;;;845.20;1203.20;;;;;;5068555;28;20381;-74
2023/09/27 10:56:25;;;;;;;12.45;5.30;;;845.10;1152.00;;;;;;5073982;28;20496;-74
2023/09/27 10:58:52;;;;;;;10.43;5.57;;;845.20;1228.80;;;;;;5061947;28;20048;-74
2023/09/27 11:01:22;;;;;;;11.13;5.47;;;845.20;1228.80;;;;;;5072601;28;20031;-74
2023/09/27 11:03:56;;;;;;;10.57;5.47;;;845.20;1177.60;;;;;;5071531;28;20032;-74
2023/09/27 11:06:22;;;;;;;13.40;5.55;;;845.10;1228.80;;;;;;5074798;28;20074;-75
2023/09/27 11:08:48;;;;;;;10.68;4.88;;;820.10;1203.20;;;;;;5068333;28;20025;-75
2023/09/27 11:11:14;;;;;;;11.70;5.97;;;845.20;1228.80;;;;;;5084895;28;20089;-74
2023/09/27 11:13:44;;;;;;;13.73;5.30;;;845.40;1203.20;;;;;;5072118;28;20047;-73
2023/09/27 11:16:14;;;;;;;10.40;5.28;;;845.30;1203.20;;;;;;5073200;28;20051;-76
2023/09/27 11:18:51;;;;;;;10.00;4.50;;;845.50;1177.60;;;;;;5062905;28;20016;-75
2023/09/27 11:21:19;;;;;;;10.90;5.15;;;845.70;1203.20;;;;;;5083299;28;20028;-74
2023/09/27 11:23:59;;;;;;;7.93;5.10;;;845.70;1152.00;;;;;;5067560;28;20099;-74
2023/09/27 11:26:26;;;;;;;8.70;5.60;;;845.70;1126.40;;;;;;5058222;28;20029;-75
2023/09/27 11:29:04;;;;;;;8.80;5.32;;;845.70;1177.60;;;;;;5065692;28;20029;-73
2023/09/27 11:31:32;;;;;;;9.07;5.40;;;845.70;1152.00;;;;;;5068382;28;20046;-77
2023/09/27 11:34:18;;;;;;;8.82;5.38;;;870.50;1126.40;;;;;;5074386;28;20036;-77
2023/09/27 11:36:48;;;;;;;8.60;5.10;;;870.50;1126.40;;;;;;5062536;28;20033;-77
2023/09/27 11:39:16;;;;;;;7.95;5.25;;;845.60;1152.00;;;;;;5067923;28;20037;-77
2023/09/27 11:41:43;;;;;;;11.43;5.50;;;845.30;1152.00;;;;;;5062139;28;20036;-76
2023/09/27 11:44:19;;;;;;;16.60;5.22;;;845.40;1152.00;;;;;;5056404;28;20466;-76
2023/09/27 11:46:46;;;;;;;9.23;5.00;;;845.40;1126.40;;;;;;5060497;28;20024;-75
2023/09/27 11:49:12;;;;;;;6.90;4.90;;;845.50;1152.00;;;;;;5073492;28;20017;-76
2023/09/27 11:51:38;;;;;;;10.93;5.13;;;845.40;1152.00;;;;;;5082045;28;20036;-75
2023/09/27 11:54:05;;;;;;;9.65;4.80;;;845.70;1177.60;;;;;;5070984;28;20017;-75
2023/09/27 11:56:32;;;;;;;10.30;5.13;;;845.40;1228.80;;;;;;5075037;28;20401;-75
2023/09/27 11:58:57;;;;;;;11.40;4.97;;;845.30;1152.00;;;;;;5068438;28;20052;-76
2023/09/27 12:01:23;;;;;;;11.23;5.10;;;845.40;1177.60;;;;;;5075072;28;20083;-76
2023/09/27 12:03:50;;;;;;;9.98;5.50;;;845.50;1203.20;;;;;;5081647;28;20021;-76
2023/09/27 12:06:16;;;;;;;8.15;4.82;;;845.40;1126.40;;;;;;5071588;28;20109;-75
2023/09/27 12:08:42;;;;;;;11.52;4.65;;;845.40;1152.00;;;;;;5078238;28;20462;-75
2023/09/27 12:11:08;;;;;;;11.23;5.47;;;845.60;1075.20;;;;;;5073088;28;20045;-75
2023/09/27 12:13:34;;;;;;;8.52;4.70;;;845.40;1049.60;;;;;;5075727;28;20028;-76
2023/09/27 12:15:59;;;;;;;10.20;4.22;;;870.40;1126.40;;;;;;5075090;28;20111;-75
2023/09/27 12:18:25;;;;;;;8.18;4.95;;;845.10;1100.80;;;;;;5074277;28;20028;-75
2023/09/27 12:20:51;;;;;;;8.48;4.82;;;845.00;1126.40;;;;;;5076638;28;20035;-75
2023/09/27 12:23:17;;;;;;;8.32;4.93;;;;;;;;;;5065374;28;20021;-75
2023/09/27 12:25:43;;;;;;;11.95;5.20;;;;;;;;;;5072477;28;20094;-75
2023/09/27 12:28:09;;;;;;;7.88;4.75;;;845.30;1126.40;;;;;;5076516;28;20020;-74
2023/09/27 12:30:35;;;;;;;9.07;4.63;;;845.20;1152.00;;;;;;5067447;28;20449;-74
2023/09/27 12:33:01;;;;;;;10.60;4.93;;;845.20;1100.80;;;;;;5068916;28;20025;-76
2023/09/27 12:35:27;;;;;;;9.98;4.90;;;845.20;1100.80;;;;;;5074335;28;20051;-76
2023/09/27 12:37:53;;;;;;;9.60;4.43;;;845.30;1075.20;;;;;;5082841;28;20516;-75
2023/09/27 12:40:19;;;;;;;7.85;4.82;;;845.40;1100.80;;;;;;5070048;28;20389;-75
2023/09/27 12:42:44;;;;;;;8.27;4.72;;;845.00;1100.80;;;;;;5084491;28;20099;-76
2023/09/27 12:45:11;;;;;;;10.88;4.70;;;845.10;1100.80;;;;;;5062104;28;20049;-75
2023/09/27 12:47:37;;;;;;;9.05;5.00;;;844.90;1100.80;;;;;;5071179;28;20032;-75
2023/09/27 12:50:03;;;;;;;10.02;4.97;;;845.00;1152.00;;;;;;5078074;28;20065;-73
2023/09/27 12:52:31;;;;;;;8.60;4.85;;;844.90;1126.40;;;;;;5084892;28;20040;-75
2023/09/27 12:54:56;;;;;;;8.65;4.97;;;845.10;1100.80;;;;;;5069258;28;20051;-74